sensor_id;sensor_type;location;lat;lon;timestamp;pressure;altitude;pressure_sealevel;temperature;humidity
64189;BME280;50493;50.970;10.082;2023-06-19T00:01:17;98823.00;;;26.62;31.29
64189;BME280;50493;50.970;10.082;2023-06-19T00:03:43;98824.41;;;26.56;31.28
64189;BME280;50493;50.970;10.082;2023-06-19T00:06:09;98813.75;;;26.74;31.69
64189;BME280;50493;50.970;10.082;2023-06-19T00:08:37;98816.50;;;26.65;31.13
64189;BME280;50493;50.970;10.082;2023-06-19T00:11:03;98822.69;;;26.65;31.12
64189;BME280;50493;50.970;10.082;2023-06-19T00:13:28;98827.09;;;26.56;31.27
64189;BME280;50493;50.970;10.082;2023-06-19T00:15:53;98828.78;;;26.57;31.29
64189;BME280;50493;50.970;10.082;2023-06-19T00:18:19;98818.28;;;26.46;31.54
64189;BME280;50493;50.970;10.082;2023-06-19T00:20:45;98819.19;;;26.37;31.54
64189;BME280;50493;50.970;10.082;2023-06-19T00:23:12;98813.41;;;26.32;31.51
64189;BME280;50493;50.970;10.082;2023-06-19T00:25:40;98805.13;;;26.25;31.77
64189;BME280;50493;50.970;10.082;2023-06-19T00:28:05;98806.81;;;26.26;31.51
64189;BME280;50493;50.970;10.082;2023-06-19T00:30:36;98801.41;;;26.08;31.88
64189;BME280;50493;50.970;10.082;2023-06-19T00:33:02;98802.94;;;26.01;31.88
64189;BME280;50493;50.970;10.082;2023-06-19T00:35:28;98800.97;;;26.03;31.89
64189;BME280;50493;50.970;10.082;2023-06-19T00:37:53;98798.41;;;26.11;31.76
64189;BME280;50493;50.970;10.082;2023-06-19T00:40:26;98797.56;;;26.11;31.61
64189;BME280;50493;50.970;10.082;2023-06-19T00:42:52;98795.28;;;26.16;31.66
64189;BME280;50493;50.970;10.082;2023-06-19T00:45:17;98800.38;;;26.09;31.61
64189;BME280;50493;50.970;10.082;2023-06-19T00:47:42;98805.78;;;25.99;31.97
64189;BME280;50493;50.970;10.082;2023-06-19T00:50:09;98806.63;;;26.00;31.92
64189;BME280;50493;50.970;10.082;2023-06-19T00:52:34;98807.63;;;25.99;31.86
64189;BME280;50493;50.970;10.082;2023-06-19T00:55:00;98814.94;;;25.97;31.68
64189;BME280;50493;50.970;10.082;2023-06-19T00:57:27;98812.25;;;25.97;31.67
64189;BME280;50493;50.970;10.082;2023-06-19T00:59:53;98807.22;;;25.94;31.86
64189;BME280;50493;50.970;10.082;2023-06-19T01:02:19;98803.25;;;25.98;32.61
64189;BME280;50493;50.970;10.082;2023-06-19T01:04:49;98793.22;;;25.52;32.44
64189;BME280;50493;50.970;10.082;2023-06-19T01:07:15;98800.25;;;25.44;32.62
64189;BME280;50493;50.970;10.082;2023-06-19T01:09:46;98793.75;;;25.66;32.14
64189;BME280;50493;50.970;10.082;2023-06-19T01:12:15;98800.09;;;25.55;32.09
64189;BME280;50493;50.970;10.082;2023-06-19T01:14:44;98796.03;;;25.61;32.00
64189;BME280;50493;50.970;10.082;2023-06-19T01:17:12;98795.75;;;25.44;32.41
64189;BME280;50493;50.970;10.082;2023-06-19T01:19:38;98793.25;;;25.33;32.39
64189;BME280;50493;50.970;10.082;2023-06-19T01:22:05;98791.25;;;25.25;33.05
64189;BME280;50493;50.970;10.082;2023-06-19T01:24:31;98789.72;;;25.32;32.55
64189;BME280;50493;50.970;10.082;2023-06-19T01:26:56;98786.63;;;25.37;32.23
64189;BME280;50493;50.970;10.082;2023-06-19T01:29:22;98780.84;;;25.32;32.45
64189;BME280;50493;50.970;10.082;2023-06-19T01:31:52;98783.97;;;25.27;32.52
64189;BME280;50493;50.970;10.082;2023-06-19T01:34:20;98776.63;;;25.19;32.55
64189;BME280;50493;50.970;10.082;2023-06-19T01:36:47;98777.47;;;25.10;32.57
64189;BME280;50493;50.970;10.082;2023-06-19T01:39:15;98782.13;;;25.18;32.81
64189;BME280;50493;50.970;10.082;2023-06-19T01:41:41;98779.19;;;25.11;32.48
64189;BME280;50493;50.970;10.082;2023-06-19T01:44:08;98775.53;;;25.12;32.75
64189;BME280;50493;50.970;10.082;2023-06-19T01:46:34;98777.22;;;25.13;32.82
64189;BME280;50493;50.970;10.082;2023-06-19T01:48:59;98778.63;;;25.17;32.63
64189;BME280;50493;50.970;10.082;2023-06-19T01:51:25;98773.84;;;25.11;32.44
64189;BME280;50493;50.970;10.082;2023-06-19T01:53:50;98772.56;;;25.05;32.85
64189;BME280;50493;50.970;10.082;2023-06-19T01:56:17;98769.31;;;25.02;32.53
64189;BME280;50493;50.970;10.082;2023-06-19T01:58:42;98772.13;;;24.90;32.80
64189;BME280;50493;50.970;10.082;2023-06-19T02:01:07;98776.34;;;24.83;32.95
64189;BME280;50493;50.970;10.082;2023-06-19T02:03:33;98774.66;;;24.82;32.89
64189;BME280;50493;50.970;10.082;2023-06-19T02:05:58;98771.41;;;24.79;33.16
64189;BME280;50493;50.970;10.082;2023-06-19T02:08:24;98770.84;;;24.75;33.05
64189;BME280;50493;50.970;10.082;2023-06-19T02:10:49;98770.16;;;24.73;32.90
64189;BME280;50493;50.970;10.082;2023-06-19T02:13:16;98768.44;;;24.72;33.36
64189;BME280;50493;50.970;10.082;2023-06-19T02:15:41;98762.41;;;24.70;33.10
64189;BME280;50493;50.970;10.082;2023-06-19T02:18:06;98761.13;;;24.64;33.11
64189;BME280;50493;50.970;10.082;2023-06-19T02:20:32;98760.56;;;24.70;33.36
64189;BME280;50493;50.970;10.082;2023-06-19T02:22:57;98755.81;;;24.74;33.15
64189;BME280;50493;50.970;10.082;2023-06-19T02:25:23;98761.97;;;24.65;32.73
64189;BME280;50493;50.970;10.082;2023-06-19T02:27:48;98750.44;;;24.54;33.19
64189;BME280;50493;50.970;10.082;2023-06-19T02:30:15;98744.09;;;24.55;32.99
64189;BME280;50493;50.970;10.082;2023-06-19T02:32:40;98731.88;;;24.53;33.20
64189;BME280;50493;50.970;10.082;2023-06-19T02:35:09;98733.00;;;24.50;33.29
64189;BME280;50493;50.970;10.082;2023-06-19T02:37:35;98740.28;;;24.38;33.68
64189;BME280;50493;50.970;10.082;2023-06-19T02:40:03;98743.97;;;24.47;33.29
64189;BME280;50493;50.970;10.082;2023-06-19T02:42:29;98748.53;;;24.26;33.65
64189;BME280;50493;50.970;10.082;2023-06-19T02:44:55;98746.53;;;24.28;33.62
64189;BME280;50493;50.970;10.082;2023-06-19T02:47:29;98741.34;;;24.26;33.68
64189;BME280;50493;50.970;10.082;2023-06-19T02:49:55;98745.78;;;24.06;34.07
64189;BME280;50493;50.970;10.082;2023-06-19T02:52:20;98743.00;;;24.08;33.70
64189;BME280;50493;50.970;10.082;2023-06-19T02:54:46;98749.75;;;24.12;33.96
64189;BME280;50493;50.970;10.082;2023-06-19T02:57:11;98753.69;;;24.17;33.42
64189;BME280;50493;50.970;10.082;2023-06-19T02:59:37;98751.41;;;24.13;33.42
64189;BME280;50493;50.970;10.082;2023-06-19T03:02:02;98751.56;;;24.11;33.78
64189;BME280;50493;50.970;10.082;2023-06-19T03:04:29;98752.75;;;23.87;34.32
64189;BME280;50493;50.970;10.082;2023-06-19T03:06:54;98759.25;;;23.95;33.88
64189;BME280;50493;50.970;10.082;2023-06-19T03:09:20;98756.25;;;23.88;34.07
64189;BME280;50493;50.970;10.082;2023-06-19T03:11:45;98766.53;;;23.93;33.92
64189;BME280;50493;50.970;10.082;2023-06-19T03:14:10;98770.38;;;24.00;33.90
64189;BME280;50493;50.970;10.082;2023-06-19T03:16:35;98767.41;;;24.03;33.75
64189;BME280;50493;50.970;10.082;2023-06-19T03:19:01;98774.53;;;23.93;34.20
64189;BME280;50493;50.970;10.082;2023-06-19T03:21:28;98768.22;;;23.94;33.62
64189;BME280;50493;50.970;10.082;2023-06-19T03:23:53;98770.50;;;23.98;33.60
64189;BME280;50493;50.970;10.082;2023-06-19T03:26:19;98769.91;;;23.95;33.70
64189;BME280;50493;50.970;10.082;2023-06-19T03:28:45;98764.84;;;23.92;34.07
64189;BME280;50493;50.970;10.082;2023-06-19T03:31:12;98769.88;;;23.85;34.04
64189;BME280;50493;50.970;10.082;2023-06-19T03:33:37;98761.84;;;23.75;33.85
64189;BME280;50493;50.970;10.082;2023-06-19T03:36:03;98756.50;;;23.75;34.23
64189;BME280;50493;50.970;10.082;2023-06-19T03:38:30;98764.22;;;23.78;33.90
64189;BME280;50493;50.970;10.082;2023-06-19T03:40:55;98766.94;;;23.67;34.40
64189;BME280;50493;50.970;10.082;2023-06-19T03:43:20;98760.16;;;23.63;34.43
64189;BME280;50493;50.970;10.082;2023-06-19T03:45:46;98753.41;;;23.59;34.09
64189;BME280;50493;50.970;10.082;2023-06-19T03:48:11;98762.00;;;23.41;34.58
64189;BME280;50493;50.970;10.082;2023-06-19T03:50:36;98754.03;;;23.20;34.86
64189;BME280;50493;50.970;10.082;2023-06-19T03:53:02;98755.25;;;23.37;34.65
64189;BME280;50493;50.970;10.082;2023-06-19T03:55:28;98754.47;;;23.46;34.23
64189;BME280;50493;50.970;10.082;2023-06-19T03:57:54;98754.41;;;23.58;33.82
64189;BME280;50493;50.970;10.082;2023-06-19T04:00:19;98756.50;;;23.54;34.40
64189;BME280;50493;50.970;10.082;2023-06-19T04:02:45;98752.84;;;23.55;34.23
64189;BME280;50493;50.970;10.082;2023-06-19T04:05:11;98757.09;;;23.58;34.45
64189;BME280;50493;50.970;10.082;2023-06-19T04:07:36;98755.66;;;23.53;34.23
64189;BME280;50493;50.970;10.082;2023-06-19T04:10:02;98752.56;;;23.58;33.89
64189;BME280;50493;50.970;10.082;2023-06-19T04:12:29;98760.44;;;23.60;33.89
64189;BME280;50493;50.970;10.082;2023-06-19T04:14:54;98750.38;;;23.63;34.14
64189;BME280;50493;50.970;10.082;2023-06-19T04:17:20;98755.06;;;23.50;34.04
64189;BME280;50493;50.970;10.082;2023-06-19T04:19:45;98757.59;;;23.51;34.01
64189;BME280;50493;50.970;10.082;2023-06-19T04:22:10;98756.16;;;23.47;34.00
64189;BME280;50493;50.970;10.082;2023-06-19T04:24:36;98763.34;;;23.26;34.31
64189;BME280;50493;50.970;10.082;2023-06-19T04:27:01;98769.91;;;23.43;34.11
64189;BME280;50493;50.970;10.082;2023-06-19T04:29:28;98763.56;;;23.65;34.08
64189;BME280;50493;50.970;10.082;2023-06-19T04:31:57;98766.09;;;23.66;33.43
64189;BME280;50493;50.970;10.082;2023-06-19T04:34:22;98753.84;;;23.75;33.80
64189;BME280;50493;50.970;10.082;2023-06-19T04:36:48;98757.72;;;23.71;33.62
64189;BME280;50493;50.970;10.082;2023-06-19T04:39:13;98758.56;;;23.71;33.71
64189;BME280;50493;50.970;10.082;2023-06-19T04:41:40;98768.16;;;23.74;33.68
64189;BME280;50493;50.970;10.082;2023-06-19T04:44:06;98768.38;;;23.71;33.61
64189;BME280;50493;50.970;10.082;2023-06-19T04:46:34;98769.00;;;23.84;33.25
64189;BME280;50493;50.970;10.082;2023-06-19T04:48:59;98771.63;;;23.96;33.01
64189;BME280;50493;50.970;10.082;2023-06-19T04:51:24;98767.34;;;23.83;33.20
64189;BME280;50493;50.970;10.082;2023-06-19T04:53:51;98777.34;;;23.70;33.99
64189;BME280;50493;50.970;10.082;2023-06-19T04:56:16;98775.94;;;23.66;33.68
64189;BME280;50493;50.970;10.082;2023-06-19T04:58:42;98786.22;;;23.92;34.00
64189;BME280;50493;50.970;10.082;2023-06-19T05:01:14;98785.84;;;23.75;33.43
64189;BME280;50493;50.970;10.082;2023-06-19T05:03:44;98791.78;;;23.88;37.35
64189;BME280;50493;50.970;10.082;2023-06-19T05:06:11;98789.03;;;24.00;33.19
64189;BME280;50493;50.970;10.082;2023-06-19T05:08:37;98798.00;;;23.89;33.50
64189;BME280;50493;50.970;10.082;2023-06-19T05:11:02;98797.50;;;24.05;34.88
64189;BME280;50493;50.970;10.082;2023-06-19T05:13:27;98808.97;;;23.96;33.47
64189;BME280;50493;50.970;10.082;2023-06-19T05:15:53;98806.28;;;23.86;33.60
64189;BME280;50493;50.970;10.082;2023-06-19T05:18:18;98805.75;;;23.71;33.83
64189;BME280;50493;50.970;10.082;2023-06-19T05:20:45;98813.84;;;23.69;41.52
64189;BME280;50493;50.970;10.082;2023-06-19T05:23:10;98816.59;;;23.16;42.29
64189;BME280;50493;50.970;10.082;2023-06-19T05:25:36;98822.78;;;22.94;41.38
64189;BME280;50493;50.970;10.082;2023-06-19T05:28:01;98821.56;;;22.98;39.92
64189;BME280;50493;50.970;10.082;2023-06-19T05:30:27;98831.75;;;23.04;38.85
64189;BME280;50493;50.970;10.082;2023-06-19T05:32:52;98831.22;;;23.21;38.13
64189;BME280;50493;50.970;10.082;2023-06-19T05:35:17;98832.16;;;23.32;37.64
64189;BME280;50493;50.970;10.082;2023-06-19T05:37:45;98846.53;;;23.41;37.98
64189;BME280;50493;50.970;10.082;2023-06-19T05:40:11;98847.34;;;23.41;37.21
64189;BME280;50493;50.970;10.082;2023-06-19T05:42:36;98843.72;;;23.42;36.93
64189;BME280;50493;50.970;10.082;2023-06-19T05:45:02;98842.94;;;23.51;42.66
64189;BME280;50493;50.970;10.082;2023-06-19T05:47:27;98843.78;;;23.31;38.19
64189;BME280;50493;50.970;10.082;2023-06-19T05:49:54;98845.16;;;23.14;44.33
64189;BME280;50493;50.970;10.082;2023-06-19T05:52:20;98841.88;;;21.40;49.49
64189;BME280;50493;50.970;10.082;2023-06-19T05:54:47;98846.00;;;21.55;41.42
64189;BME280;50493;50.970;10.082;2023-06-19T05:57:13;98845.72;;;21.83;47.29
64189;BME280;50493;50.970;10.082;2023-06-19T05:59:40;98846.88;;;22.14;39.21
64189;BME280;50493;50.970;10.082;2023-06-19T06:02:06;98850.75;;;22.55;37.91
64189;BME280;50493;50.970;10.082;2023-06-19T06:04:32;98853.88;;;22.61;37.95
64189;BME280;50493;50.970;10.082;2023-06-19T06:06:59;98854.22;;;22.79;39.59
64189;BME280;50493;50.970;10.082;2023-06-19T06:09:24;98857.47;;;22.82;37.26
64189;BME280;50493;50.970;10.082;2023-06-19T06:11:51;98856.72;;;23.03;37.44
64189;BME280;50493;50.970;10.082;2023-06-19T06:14:16;98858.91;;;23.30;38.79
64189;BME280;50493;50.970;10.082;2023-06-19T06:16:42;98861.75;;;23.50;37.24
64189;BME280;50493;50.970;10.082;2023-06-19T06:19:07;98866.41;;;23.36;36.10
64189;BME280;50493;50.970;10.082;2023-06-19T06:21:32;98869.63;;;23.51;35.41
64189;BME280;50493;50.970;10.082;2023-06-19T06:24:00;98871.69;;;23.48;35.30
64189;BME280;50493;50.970;10.082;2023-06-19T06:26:25;98873.66;;;23.67;39.09
64189;BME280;50493;50.970;10.082;2023-06-19T06:28:52;98876.22;;;23.68;34.83
64189;BME280;50493;50.970;10.082;2023-06-19T06:31:17;98890.19;;;23.61;35.31
64189;BME280;50493;50.970;10.082;2023-06-19T06:33:43;98887.06;;;23.55;35.17
64189;BME280;50493;50.970;10.082;2023-06-19T06:36:08;98892.03;;;23.81;34.77
64189;BME280;50493;50.970;10.082;2023-06-19T06:38:33;98890.44;;;23.90;34.90
64189;BME280;50493;50.970;10.082;2023-06-19T06:40:59;98890.75;;;23.97;41.92
64189;BME280;50493;50.970;10.082;2023-06-19T06:43:24;98887.25;;;23.10;42.51
64189;BME280;50493;50.970;10.082;2023-06-19T06:45:51;98888.91;;;23.11;41.02
64189;BME280;50493;50.970;10.082;2023-06-19T06:48:16;98891.03;;;23.29;41.80
64189;BME280;50493;50.970;10.082;2023-06-19T06:50:42;98889.78;;;23.77;40.24
64189;BME280;50493;50.970;10.082;2023-06-19T06:53:07;98892.16;;;24.32;37.12
64189;BME280;50493;50.970;10.082;2023-06-19T06:55:33;98894.13;;;24.92;33.96
64189;BME280;50493;50.970;10.082;2023-06-19T06:57:58;98897.84;;;24.38;38.49
64189;BME280;50493;50.970;10.082;2023-06-19T07:00:24;98900.19;;;24.63;33.42
64189;BME280;50493;50.970;10.082;2023-06-19T07:02:50;98898.09;;;24.56;33.48
64189;BME280;50493;50.970;10.082;2023-06-19T07:05:16;98911.66;;;24.84;32.65
64189;BME280;50493;50.970;10.082;2023-06-19T07:07:42;98910.00;;;24.93;32.68
64189;BME280;50493;50.970;10.082;2023-06-19T07:10:08;98906.59;;;24.81;32.68
64189;BME280;50493;50.970;10.082;2023-06-19T07:12:34;98901.75;;;25.06;32.28
64189;BME280;50493;50.970;10.082;2023-06-19T07:14:59;98910.69;;;25.65;36.69
64189;BME280;50493;50.970;10.082;2023-06-19T07:17:24;98904.47;;;25.45;31.99
64189;BME280;50493;50.970;10.082;2023-06-19T07:19:51;98900.94;;;25.35;32.60
64189;BME280;50493;50.970;10.082;2023-06-19T07:22:16;98899.38;;;25.62;37.19
64189;BME280;50493;50.970;10.082;2023-06-19T07:24:42;98884.75;;;25.27;32.63
64189;BME280;50493;50.970;10.082;2023-06-19T07:27:07;98889.94;;;25.57;35.88
64189;BME280;50493;50.970;10.082;2023-06-19T07:29:33;98899.38;;;25.62;32.05
64189;BME280;50493;50.970;10.082;2023-06-19T07:31:58;98883.63;;;25.78;31.84
64189;BME280;50493;50.970;10.082;2023-06-19T07:34:24;98892.94;;;25.64;35.71
64189;BME280;50493;50.970;10.082;2023-06-19T07:36:50;98901.22;;;25.71;34.15
64189;BME280;50493;50.970;10.082;2023-06-19T07:39:16;98902.41;;;26.16;35.11
64189;BME280;50493;50.970;10.082;2023-06-19T07:41:41;98909.56;;;25.68;34.49
64189;BME280;50493;50.970;10.082;2023-06-19T07:44:07;98917.81;;;25.55;35.55
64189;BME280;50493;50.970;10.082;2023-06-19T07:46:32;98916.16;;;25.73;34.95
64189;BME280;50493;50.970;10.082;2023-06-19T07:48:57;98915.16;;;25.55;32.04
64189;BME280;50493;50.970;10.082;2023-06-19T07:51:23;98917.97;;;25.93;33.10
64189;BME280;50493;50.970;10.082;2023-06-19T07:53:49;98926.66;;;26.14;36.11
64189;BME280;50493;50.970;10.082;2023-06-19T07:56:15;98920.16;;;26.36;34.45
64189;BME280;50493;50.970;10.082;2023-06-19T07:58:40;98919.66;;;25.54;34.48
64189;BME280;50493;50.970;10.082;2023-06-19T08:01:06;98922.72;;;26.09;35.13
64189;BME280;50493;50.970;10.082;2023-06-19T08:03:31;98922.56;;;26.20;34.99
64189;BME280;50493;50.970;10.082;2023-06-19T08:05:57;98921.75;;;26.10;33.31
64189;BME280;50493;50.970;10.082;2023-06-19T08:08:22;98915.09;;;26.99;31.82
64189;BME280;50493;50.970;10.082;2023-06-19T08:10:49;98913.84;;;27.57;29.66
64189;BME280;50493;50.970;10.082;2023-06-19T08:13:14;98912.91;;;26.47;33.95
64189;BME280;50493;50.970;10.082;2023-06-19T08:15:40;98917.13;;;25.33;36.05
64189;BME280;50493;50.970;10.082;2023-06-19T08:18:05;98913.88;;;26.55;33.75
64189;BME280;50493;50.970;10.082;2023-06-19T08:20:30;98910.88;;;26.96;34.77
64189;BME280;50493;50.970;10.082;2023-06-19T08:22:56;98905.50;;;26.31;31.29
64189;BME280;50493;50.970;10.082;2023-06-19T08:25:22;98898.34;;;27.15;32.90
64189;BME280;50493;50.970;10.082;2023-06-19T08:27:48;98902.25;;;27.74;32.13
64189;BME280;50493;50.970;10.082;2023-06-19T08:30:14;98901.25;;;28.02;31.71
64189;BME280;50493;50.970;10.082;2023-06-19T08:32:39;98906.91;;;28.17;31.42
64189;BME280;50493;50.970;10.082;2023-06-19T08:35:05;98910.34;;;28.27;31.48
64189;BME280;50493;50.970;10.082;2023-06-19T08:37:31;98899.28;;;28.30;32.36
64189;BME280;50493;50.970;10.082;2023-06-19T08:39:56;98899.97;;;28.67;31.42
64189;BME280;50493;50.970;10.082;2023-06-19T08:42:22;98900.28;;;27.59;32.52
64189;BME280;50493;50.970;10.082;2023-06-19T08:44:49;98895.72;;;28.30;30.77
64189;BME280;50493;50.970;10.082;2023-06-19T08:47:14;98893.66;;;28.93;28.22
64189;BME280;50493;50.970;10.082;2023-06-19T08:49:40;98897.97;;;27.64;33.39
64189;BME280;50493;50.970;10.082;2023-06-19T08:52:06;98896.22;;;27.99;29.90
64189;BME280;50493;50.970;10.082;2023-06-19T08:54:32;98898.53;;;28.20;32.46
64189;BME280;50493;50.970;10.082;2023-06-19T08:57:00;98899.38;;;28.89;31.06
64189;BME280;50493;50.970;10.082;2023-06-19T08:59:25;98890.28;;;28.90;32.20
64189;BME280;50493;50.970;10.082;2023-06-19T09:01:54;98895.84;;;27.76;30.55
64189;BME280;50493;50.970;10.082;2023-06-19T09:04:22;98891.16;;;27.51;32.26
64189;BME280;50493;50.970;10.082;2023-06-19T09:06:49;98895.66;;;28.90;31.91
64189;BME280;50493;50.970;10.082;2023-06-19T09:09:15;98888.47;;;28.99;31.15
64189;BME280;50493;50.970;10.082;2023-06-19T09:11:40;98892.84;;;28.57;33.92
64189;BME280;50493;50.970;10.082;2023-06-19T09:14:08;98893.91;;;28.04;32.47
64189;BME280;50493;50.970;10.082;2023-06-19T09:16:38;98895.50;;;27.97;30.20
64189;BME280;50493;50.970;10.082;2023-06-19T09:19:05;98887.44;;;27.16;34.72
64189;BME280;50493;50.970;10.082;2023-06-19T09:21:31;98888.75;;;28.45;32.85
64189;BME280;50493;50.970;10.082;2023-06-19T09:24:02;98896.06;;;29.12;31.85
64189;BME280;50493;50.970;10.082;2023-06-19T09:26:27;98894.47;;;28.77;32.73
64189;BME280;50493;50.970;10.082;2023-06-19T09:28:53;98881.16;;;29.67;32.66
64189;BME280;50493;50.970;10.082;2023-06-19T09:31:18;98885.03;;;29.56;31.39
64189;BME280;50493;50.970;10.082;2023-06-19T09:33:44;98895.66;;;28.90;32.85
64189;BME280;50493;50.970;10.082;2023-06-19T09:36:10;98897.59;;;28.29;33.39
64189;BME280;50493;50.970;10.082;2023-06-19T09:38:37;98893.59;;;28.07;31.29
64189;BME280;50493;50.970;10.082;2023-06-19T09:41:05;98890.44;;;27.49;32.18
64189;BME280;50493;50.970;10.082;2023-06-19T09:43:37;98890.72;;;27.10;32.54
64189;BME280;50493;50.970;10.082;2023-06-19T09:46:03;98900.44;;;28.28;33.06
64189;BME280;50493;50.970;10.082;2023-06-19T09:48:30;98892.09;;;29.49;32.43
64189;BME280;50493;50.970;10.082;2023-06-19T09:51:00;98901.19;;;29.48;30.11
64189;BME280;50493;50.970;10.082;2023-06-19T09:53:28;98888.41;;;29.91;31.73
64189;BME280;50493;50.970;10.082;2023-06-19T09:55:53;98894.78;;;29.33;30.29
64189;BME280;50493;50.970;10.082;2023-06-19T09:58:21;98890.28;;;29.83;31.41
64189;BME280;50493;50.970;10.082;2023-06-19T10:00:47;98893.00;;;30.47;29.64
64189;BME280;50493;50.970;10.082;2023-06-19T10:03:14;98885.97;;;30.30;29.07
64189;BME280;50493;50.970;10.082;2023-06-19T10:05:42;98885.19;;;29.63;29.92
64189;BME280;50493;50.970;10.082;2023-06-19T10:08:08;98890.59;;;29.30;31.36
64189;BME280;50493;50.970;10.082;2023-06-19T10:10:35;98883.78;;;30.33;30.30
64189;BME280;50493;50.970;10.082;2023-06-19T10:13:12;98885.91;;;30.54;30.82
64189;BME280;50493;50.970;10.082;2023-06-19T10:15:41;98890.69;;;30.75;31.35
64189;BME280;50493;50.970;10.082;2023-06-19T10:18:12;98883.63;;;30.35;29.71
64189;BME280;50493;50.970;10.082;2023-06-19T10:20:38;98895.44;;;31.05;29.86
64189;BME280;50493;50.970;10.082;2023-06-19T10:23:05;98893.97;;;29.65;32.50
64189;BME280;50493;50.970;10.082;2023-06-19T10:25:32;98890.06;;;30.09;31.33
64189;BME280;50493;50.970;10.082;2023-06-19T10:27:59;98892.63;;;30.50;31.10
64189;BME280;50493;50.970;10.082;2023-06-19T10:30:25;98899.06;;;31.20;28.99
64189;BME280;50493;50.970;10.082;2023-06-19T10:32:50;98896.44;;;30.81;29.30
64189;BME280;50493;50.970;10.082;2023-06-19T10:35:17;98903.22;;;31.00;29.45
64189;BME280;50493;50.970;10.082;2023-06-19T10:37:43;98896.66;;;31.25;29.84
64189;BME280;50493;50.970;10.082;2023-06-19T10:40:10;98903.84;;;30.70;32.08
64189;BME280;50493;50.970;10.082;2023-06-19T10:42:38;98904.00;;;30.77;29.96
64189;BME280;50493;50.970;10.082;2023-06-19T10:45:07;98901.16;;;31.10;30.65
64189;BME280;50493;50.970;10.082;2023-06-19T10:47:34;98899.66;;;30.12;30.73
64189;BME280;50493;50.970;10.082;2023-06-19T10:49:59;98895.34;;;30.50;30.11
64189;BME280;50493;50.970;10.082;2023-06-19T10:52:24;98886.19;;;30.60;30.78
64189;BME280;50493;50.970;10.082;2023-06-19T10:54:53;98894.41;;;30.18;30.75
64189;BME280;50493;50.970;10.082;2023-06-19T10:57:26;98891.03;;;30.33;31.05
64189;BME280;50493;50.970;10.082;2023-06-19T10:59:51;98893.28;;;30.61;31.25
64189;BME280;50493;50.970;10.082;2023-06-19T11:02:19;98893.28;;;29.88;31.68
64189;BME280;50493;50.970;10.082;2023-06-19T11:04:44;98888.38;;;30.64;31.18
64189;BME280;50493;50.970;10.082;2023-06-19T11:07:10;98895.41;;;30.82;31.26
64189;BME280;50493;50.970;10.082;2023-06-19T11:09:35;98886.41;;;30.89;30.57
64189;BME280;50493;50.970;10.082;2023-06-19T11:12:01;98893.94;;;30.71;30.60
64189;BME280;50493;50.970;10.082;2023-06-19T11:14:29;98893.75;;;30.72;31.38
64189;BME280;50493;50.970;10.082;2023-06-19T11:16:55;98892.72;;;30.26;32.45
64189;BME280;50493;50.970;10.082;2023-06-19T11:19:22;98893.63;;;30.97;30.32
64189;BME280;50493;50.970;10.082;2023-06-19T11:21:49;98894.25;;;30.76;30.84
64189;BME280;50493;50.970;10.082;2023-06-19T11:24:16;98896.56;;;31.88;29.67
64189;BME280;50493;50.970;10.082;2023-06-19T11:26:42;98884.44;;;31.38;29.92
64189;BME280;50493;50.970;10.082;2023-06-19T11:29:15;98898.72;;;30.52;32.07
64189;BME280;50493;50.970;10.082;2023-06-19T11:31:41;98893.09;;;31.33;30.38
64189;BME280;50493;50.970;10.082;2023-06-19T11:34:07;98895.38;;;31.45;30.47
64189;BME280;50493;50.970;10.082;2023-06-19T11:36:36;98893.16;;;30.54;31.99
64189;BME280;50493;50.970;10.082;2023-06-19T11:39:02;98893.94;;;31.34;30.93
64189;BME280;50493;50.970;10.082;2023-06-19T11:41:30;98895.56;;;30.88;31.73
64189;BME280;50493;50.970;10.082;2023-06-19T11:43:59;98885.84;;;31.72;29.23
64189;BME280;50493;50.970;10.082;2023-06-19T11:46:28;98875.19;;;31.09;30.95
64189;BME280;50493;50.970;10.082;2023-06-19T11:48:53;98889.78;;;30.91;31.59
64189;BME280;50493;50.970;10.082;2023-06-19T11:51:19;98894.25;;;30.68;32.04
64189;BME280;50493;50.970;10.082;2023-06-19T11:53:45;98894.59;;;31.04;31.69
64189;BME280;50493;50.970;10.082;2023-06-19T11:56:11;98885.16;;;31.08;31.60
64189;BME280;50493;50.970;10.082;2023-06-19T11:58:36;98889.88;;;31.99;29.11
64189;BME280;50493;50.970;10.082;2023-06-19T12:01:02;98891.16;;;31.80;30.16
64189;BME280;50493;50.970;10.082;2023-06-19T12:03:27;98896.72;;;32.40;28.61
64189;BME280;50493;50.970;10.082;2023-06-19T12:05:52;98891.72;;;32.29;29.81
64189;BME280;50493;50.970;10.082;2023-06-19T12:08:18;98888.75;;;31.47;31.66
64189;BME280;50493;50.970;10.082;2023-06-19T12:10:45;98891.13;;;31.19;32.03
64189;BME280;50493;50.970;10.082;2023-06-19T12:13:10;98888.59;;;31.49;31.43
64189;BME280;50493;50.970;10.082;2023-06-19T12:15:35;98886.31;;;32.58;30.17
64189;BME280;50493;50.970;10.082;2023-06-19T12:18:00;98885.38;;;32.21;30.38
64189;BME280;50493;50.970;10.082;2023-06-19T12:20:26;98886.69;;;32.25;30.64
64189;BME280;50493;50.970;10.082;2023-06-19T12:22:51;98883.19;;;33.06;28.81
64189;BME280;50493;50.970;10.082;2023-06-19T12:25:17;98880.41;;;33.00;28.98
64189;BME280;50493;50.970;10.082;2023-06-19T12:27:43;98876.09;;;33.49;27.81
64189;BME280;50493;50.970;10.082;2023-06-19T12:30:10;98866.06;;;33.06;29.19
64189;BME280;50493;50.970;10.082;2023-06-19T12:32:36;98875.38;;;33.18;29.59
64189;BME280;50493;50.970;10.082;2023-06-19T12:35:01;98871.78;;;33.33;29.30
64189;BME280;50493;50.970;10.082;2023-06-19T12:37:28;98873.97;;;32.71;30.36
64189;BME280;50493;50.970;10.082;2023-06-19T12:39:53;98864.84;;;32.72;27.73
64189;BME280;50493;50.970;10.082;2023-06-19T12:42:18;98873.09;;;32.34;30.55
64189;BME280;50493;50.970;10.082;2023-06-19T12:44:46;98871.38;;;32.63;29.76